createdAt,value
2018-08-17T00:02:14.483Z,51.91
2018-08-17T00:04:45.489Z,52.22
2018-08-17T00:07:16.502Z,52.20
2018-08-17T00:09:47.496Z,51.93
2018-08-17T00:12:18.472Z,53.22
2018-08-17T00:14:49.469Z,52.10
2018-08-17T00:17:20.497Z,53.11
2018-08-17T00:19:51.518Z,53.01
2018-08-17T00:22:22.522Z,53.06
2018-08-17T00:24:53.472Z,53.24
2018-08-17T00:27:24.498Z,52.76
2018-08-17T00:29:55.476Z,52.59
2018-08-17T00:32:26.509Z,53.35
2018-08-17T00:34:57.478Z,52.76
2018-08-17T00:37:28.515Z,52.89
2018-08-17T00:39:59.493Z,53.40
2018-08-17T00:42:30.631Z,52.88
2018-08-17T00:45:01.467Z,53.02
2018-08-17T00:47:32.531Z,53.46
2018-08-17T00:50:03.497Z,53.14
2018-08-17T00:52:34.472Z,53.33
2018-08-17T00:55:05.625Z,54.84
2018-08-17T00:57:36.525Z,54.19
2018-08-17T01:00:08.261Z,54.58
2018-08-17T01:02:38.427Z,53.62
2018-08-17T01:05:09.518Z,54.84
2018-08-17T01:07:41.024Z,54.59
2018-08-17T01:10:12.362Z,54.58
2018-08-17T01:12:43.397Z,54.48
2018-08-17T01:15:14.494Z,55.67
2018-08-17T01:17:45.497Z,55.76
2018-08-17T01:20:16.495Z,55.00
2018-08-17T01:22:47.493Z,55.55
2018-08-17T01:25:18.481Z,55.12
2018-08-17T01:27:49.500Z,55.02
2018-08-17T01:30:20.476Z,55.09
2018-08-17T01:32:51.481Z,55.17
2018-08-17T01:35:22.485Z,56.05
2018-08-17T01:37:53.487Z,56.58
2018-08-17T01:40:24.477Z,56.16
2018-08-17T01:42:55.497Z,56.63
2018-08-17T01:45:26.485Z,56.33
2018-08-17T01:47:57.496Z,55.74
2018-08-17T01:50:28.485Z,55.52
2018-08-17T01:52:59.510Z,55.64
2018-08-17T01:55:30.481Z,55.07
2018-08-17T01:58:01.498Z,54.65
2018-08-17T02:00:32.501Z,54.88
2018-08-17T02:03:03.514Z,54.32
2018-08-17T02:05:34.473Z,54.51
2018-08-17T02:08:05.527Z,54.77
2018-08-17T02:10:36.504Z,55.36
2018-08-17T02:13:07.509Z,54.63
2018-08-17T02:15:38.497Z,55.53
2018-08-17T02:18:09.654Z,54.63
2018-08-17T02:20:40.481Z,54.61
2018-08-17T02:23:11.578Z,55.24
2018-08-17T02:25:42.517Z,54.63
2018-08-17T02:28:13.519Z,54.42
2018-08-17T02:30:44.506Z,55.12
2018-08-17T02:33:15.485Z,54.85
2018-08-17T02:35:46.499Z,55.99
2018-08-17T02:38:17.660Z,55.66
2018-08-17T02:40:48.601Z,56.42
2018-08-17T02:43:19.529Z,55.60
2018-08-17T02:45:50.498Z,56.17
2018-08-17T02:48:21.545Z,55.71
2018-08-17T02:50:52.743Z,55.80
2018-08-17T02:53:23.574Z,56.70
2018-08-17T02:55:54.482Z,57.04
2018-08-17T02:58:25.509Z,57.48
2018-08-17T03:00:56.510Z,57.05
2018-08-17T03:03:27.489Z,57.53
2018-08-17T03:05:58.493Z,57.59
2018-08-17T03:08:29.520Z,56.75
2018-08-17T03:11:00.520Z,57.71
2018-08-17T03:16:17.545Z,57.50
2018-08-17T03:18:48.484Z,57.47
2018-08-17T03:21:19.498Z,57.91
2018-08-17T03:23:50.484Z,57.79
2018-08-17T03:26:21.479Z,57.77
2018-08-17T03:28:52.524Z,57.82
2018-08-17T03:31:23.487Z,57.92
2018-08-17T03:33:54.509Z,58.04
2018-08-17T03:36:25.477Z,58.53
2018-08-17T03:38:56.497Z,57.67
2018-08-17T03:41:27.496Z,58.36
2018-08-17T03:43:58.478Z,57.99
2018-08-17T03:46:29.481Z,58.46
2018-08-17T03:49:00.521Z,58.72
2018-08-17T03:51:31.480Z,58.21
2018-08-17T03:54:02.517Z,58.68
2018-08-17T03:56:33.482Z,58.11
2018-08-17T03:59:04.525Z,58.30
2018-08-17T04:01:35.460Z,58.51
2018-08-17T04:04:06.601Z,58.00
2018-08-17T04:06:37.459Z,57.94
2018-08-17T04:09:10.692Z,57.87
2018-08-17T04:11:41.536Z,58.52
2018-08-17T04:14:12.561Z,57.71
2018-08-17T04:16:43.500Z,58.44
2018-08-17T04:19:14.493Z,58.83
2018-08-17T04:21:45.508Z,58.87
2018-08-17T04:24:16.465Z,58.84
2018-08-17T04:26:47.547Z,57.63
2018-08-17T04:29:18.508Z,58.26
2018-08-17T04:31:49.528Z,58.94
2018-08-17T04:34:20.504Z,59.31
2018-08-17T04:36:51.509Z,58.85
2018-08-17T04:39:22.504Z,58.15
2018-08-17T04:41:53.561Z,58.99
2018-08-17T04:44:24.499Z,58.99
2018-08-17T04:46:55.485Z,58.54
2018-08-17T04:49:26.544Z,59.15
2018-08-17T04:51:57.480Z,58.37
2018-08-17T04:54:28.557Z,59.15
2018-08-17T04:56:59.498Z,59.29
2018-08-17T04:59:30.500Z,59.43
2018-08-17T05:02:01.484Z,59.17
2018-08-17T05:04:32.523Z,59.79
2018-08-17T05:07:03.523Z,59.54
2018-08-17T05:09:34.477Z,58.47
2018-08-17T05:12:05.530Z,59.23
2018-08-17T05:14:36.558Z,59.59
2018-08-17T05:17:07.465Z,60.24
2018-08-17T05:19:38.596Z,60.19
2018-08-17T05:22:09.600Z,58.96
2018-08-17T05:24:40.479Z,59.14
2018-08-17T05:27:12.356Z,59.28
2018-08-17T05:29:43.398Z,59.30
2018-08-17T05:32:14.456Z,59.41
2018-08-17T05:34:46.322Z,59.22
2018-08-17T05:37:17.388Z,59.00
2018-08-17T05:39:48.458Z,58.75
2018-08-17T05:42:19.730Z,58.87
2018-08-17T05:44:50.544Z,58.75
2018-08-17T05:47:21.474Z,58.37
2018-08-17T05:49:53.299Z,59.39
2018-08-17T05:52:24.359Z,58.72
2018-08-17T05:54:55.377Z,58.84
2018-08-17T05:57:26.458Z,58.14
2018-08-17T05:59:57.522Z,58.77
2018-08-17T06:02:28.583Z,57.94
2018-08-17T06:04:59.806Z,56.88
2018-08-17T06:07:31.314Z,57.56
2018-08-17T06:10:02.395Z,56.97
2018-08-17T06:12:33.505Z,56.90
2018-08-17T06:15:05.293Z,57.42
2018-08-17T06:17:36.384Z,56.88
2018-08-17T06:20:08.548Z,57.33
2018-08-17T06:22:39.491Z,56.89
2018-08-17T06:25:14.423Z,56.84
2018-08-17T06:27:45.487Z,56.22
2018-08-17T06:30:17.007Z,56.26
2018-08-17T06:32:48.266Z,56.53
2018-08-17T06:35:18.481Z,56.88
2018-08-17T06:37:49.497Z,56.62
2018-08-17T06:40:20.522Z,56.00
2018-08-17T06:42:51.513Z,54.67
2018-08-17T06:45:23.422Z,55.72
2018-08-17T06:47:54.515Z,55.28
2018-08-17T06:50:25.525Z,55.49
2018-08-17T06:52:56.575Z,54.78
2018-08-17T06:55:27.535Z,54.50
2018-08-17T06:57:58.517Z,54.15
2018-08-17T07:00:29.531Z,54.24
2018-08-17T07:03:00.496Z,54.37
2018-08-17T07:05:31.526Z,54.24
2018-08-17T07:08:02.505Z,54.24
2018-08-17T07:10:33.494Z,53.18
2018-08-17T07:13:04.480Z,52.58
2018-08-17T07:15:35.511Z,52.52
2018-08-17T07:18:06.522Z,53.39
2018-08-17T07:20:37.549Z,52.84
2018-08-17T07:23:08.836Z,53.07
2018-08-17T07:25:41.341Z,52.96
2018-08-17T07:28:12.470Z,51.63
2018-08-17T07:30:43.493Z,51.76
2018-08-17T07:33:14.537Z,50.31
2018-08-17T07:35:45.528Z,49.91
2018-08-17T07:38:16.502Z,49.98
2018-08-17T07:40:47.538Z,49.31
2018-08-17T07:43:18.487Z,48.76
2018-08-17T07:45:49.570Z,48.69
2018-08-17T07:48:20.651Z,49.28
2018-08-17T07:50:51.510Z,49.31
2018-08-17T07:53:22.558Z,49.04
2018-08-17T07:55:53.598Z,49.13
2018-08-17T07:58:24.653Z,48.35
2018-08-17T08:00:55.503Z,48.08
2018-08-17T08:03:26.510Z,47.27
2018-08-17T08:05:57.434Z,46.68
2018-08-17T08:08:28.484Z,47.11
2018-08-17T08:10:59.510Z,46.97
2018-08-17T08:13:30.474Z,46.92
2018-08-17T08:16:01.511Z,46.30
2018-08-17T08:18:32.605Z,46.76
2018-08-17T08:21:03.563Z,46.61
2018-08-17T08:23:34.473Z,46.62
2018-08-17T08:26:05.513Z,46.19
2018-08-17T08:28:36.490Z,46.36
2018-08-17T08:31:12.641Z,44.79
2018-08-17T08:33:43.474Z,44.95
2018-08-17T08:36:14.497Z,45.30
2018-08-17T08:38:45.490Z,44.32
2018-08-17T08:41:16.484Z,43.72
2018-08-17T08:43:47.453Z,44.07
2018-08-17T08:46:18.601Z,42.92
2018-08-17T08:48:49.454Z,42.81
2018-08-17T08:51:20.422Z,41.96
2018-08-17T08:53:51.481Z,41.58
2018-08-17T08:56:22.475Z,42.48
2018-08-17T08:58:53.614Z,40.86
2018-08-17T09:01:24.667Z,41.39
2018-08-17T09:03:57.422Z,40.12
2018-08-17T09:06:28.723Z,39.10
2018-08-17T09:08:59.558Z,38.71
2018-08-17T09:11:30.482Z,39.74
2018-08-17T09:14:01.433Z,38.15
2018-08-17T09:16:32.461Z,39.14
2018-08-17T09:21:48.481Z,38.16
2018-08-17T09:24:19.479Z,37.23
2018-08-17T09:26:50.462Z,37.64
2018-08-17T09:29:21.469Z,36.67
2018-08-17T09:31:52.493Z,36.09
2018-08-17T09:34:23.556Z,36.79
2018-08-17T09:36:54.492Z,36.92
2018-08-17T09:39:25.495Z,36.72
2018-08-17T09:41:56.609Z,35.79
2018-08-17T09:44:27.631Z,36.39
2018-08-17T09:46:58.582Z,35.19
2018-08-17T09:49:31.521Z,36.61
2018-08-17T09:52:02.531Z,35.88
2018-08-17T09:54:33.537Z,35.88
2018-08-17T09:57:04.503Z,35.60
2018-08-17T09:59:35.527Z,36.08
2018-08-17T10:02:11.762Z,35.73
2018-08-17T10:04:46.458Z,35.07
2018-08-17T10:07:22.683Z,36.09
2018-08-17T10:09:56.301Z,35.61
2018-08-17T10:15:07.730Z,35.82
2018-08-17T10:17:38.600Z,35.31
2018-08-17T10:20:18.745Z,35.74
2018-08-17T10:22:49.637Z,35.39
2018-08-17T10:25:23.600Z,35.61
2018-08-17T10:27:56.031Z,36.30
2018-08-17T10:30:27.452Z,35.47
2018-08-17T10:32:59.644Z,36.04
2018-08-17T10:35:32.086Z,35.87
2018-08-17T10:38:07.505Z,34.94
2018-08-17T10:40:38.558Z,35.89
2018-08-17T10:43:09.539Z,37.11
2018-08-17T10:45:40.509Z,36.40
2018-08-17T10:48:11.575Z,36.05
2018-08-17T10:50:42.557Z,35.24
2018-08-17T10:53:13.606Z,34.13
2018-08-17T10:55:48.515Z,34.41
2018-08-17T10:58:19.591Z,34.06
2018-08-17T11:03:34.625Z,35.08
2018-08-17T11:06:05.622Z,33.77
2018-08-17T11:08:36.489Z,33.92
2018-08-17T11:11:07.608Z,34.09
2018-08-17T11:13:38.572Z,33.75
2018-08-17T11:16:12.395Z,34.46
2018-08-17T11:18:43.537Z,33.65
2018-08-17T11:21:14.512Z,33.80
2018-08-17T11:23:45.486Z,33.09
2018-08-17T11:26:16.528Z,33.42
2018-08-17T11:28:47.521Z,33.12
2018-08-17T11:31:18.545Z,33.42
2018-08-17T11:33:49.531Z,33.05
2018-08-17T11:36:25.389Z,32.38
2018-08-17T11:38:56.507Z,32.85
2018-08-17T11:41:27.517Z,31.51
2018-08-17T11:44:04.302Z,30.63
2018-08-17T11:46:35.381Z,30.59
2018-08-17T11:49:06.463Z,30.35
2018-08-17T11:51:41.374Z,30.96
2018-08-17T11:54:13.550Z,30.71
2018-08-17T11:56:44.486Z,30.95
2018-08-17T11:59:15.522Z,31.00
2018-08-17T12:01:46.528Z,30.14
2018-08-17T12:04:17.505Z,31.44
2018-08-17T12:06:48.495Z,30.10
2018-08-17T12:09:19.494Z,30.45
2018-08-17T12:11:50.481Z,30.93
2018-08-17T12:14:22.441Z,31.36
2018-08-17T12:16:53.537Z,31.12
2018-08-17T12:19:24.525Z,30.08
2018-08-17T12:21:55.543Z,29.33
2018-08-17T12:27:06.649Z,30.01
2018-08-17T12:29:37.570Z,29.79
2018-08-17T12:32:09.857Z,28.68
2018-08-17T12:34:40.613Z,29.83
2018-08-17T12:37:11.546Z,29.18
2018-08-17T12:39:42.517Z,28.33
2018-08-17T12:42:13.485Z,29.26
2018-08-17T12:44:44.509Z,29.03
2018-08-17T12:47:15.534Z,29.97
2018-08-17T12:49:46.490Z,28.83
2018-08-17T12:52:17.516Z,29.06
2018-08-17T12:54:48.515Z,29.91
2018-08-17T13:00:07.648Z,29.37
2018-08-17T13:02:38.589Z,30.18
2018-08-17T13:05:09.594Z,29.10
2018-08-17T13:07:40.481Z,28.48
2018-08-17T13:10:11.521Z,27.88
2018-08-17T13:12:42.511Z,27.59
2018-08-17T13:15:13.517Z,27.65
2018-08-17T13:17:46.489Z,28.36
2018-08-17T13:20:18.241Z,30.52
2018-08-17T13:22:49.311Z,29.54
2018-08-17T13:25:20.601Z,28.38
2018-08-17T13:27:51.574Z,27.88
2018-08-17T13:30:22.541Z,28.09
2018-08-17T13:32:53.499Z,27.87
2018-08-17T13:35:24.627Z,29.05
2018-08-17T13:37:55.572Z,28.95
2018-08-17T13:40:26.568Z,30.08
2018-08-17T13:42:57.550Z,28.89
2018-08-17T13:45:28.566Z,28.38
2018-08-17T13:47:59.539Z,28.50
2018-08-17T13:50:30.563Z,29.09
2018-08-17T13:53:01.513Z,29.38
2018-08-17T13:55:32.564Z,29.57
2018-08-17T13:58:03.491Z,29.73
2018-08-17T14:00:34.509Z,29.61
2018-08-17T14:03:05.594Z,29.93
2018-08-17T14:05:36.561Z,29.96
2018-08-17T14:08:07.553Z,28.84
2018-08-17T14:10:38.519Z,27.85
2018-08-17T14:13:09.513Z,28.87
2018-08-17T14:15:40.588Z,30.67
2018-08-17T14:18:11.506Z,31.17
2018-08-17T14:20:42.517Z,30.58
2018-08-17T14:23:13.601Z,31.32
2018-08-17T14:25:44.690Z,31.80
2018-08-17T14:28:15.616Z,32.09
2018-08-17T14:30:46.602Z,31.83
2018-08-17T14:33:17.606Z,33.16
2018-08-17T14:35:48.598Z,33.00
2018-08-17T14:38:33.385Z,33.79
2018-08-17T14:41:05.431Z,33.60
2018-08-17T14:43:36.497Z,34.66
2018-08-17T14:46:07.493Z,33.56
2018-08-17T14:48:38.549Z,34.81
2018-08-17T14:51:09.497Z,34.82
2018-08-17T14:53:40.583Z,35.47
2018-08-17T14:56:11.522Z,34.68
2018-08-17T14:58:42.480Z,35.28
2018-08-17T15:01:13.644Z,36.37
2018-08-17T15:03:44.550Z,36.20
2018-08-17T15:06:15.584Z,35.64
2018-08-17T15:08:46.583Z,36.01
2018-08-17T15:11:17.722Z,36.63
2018-08-17T15:13:48.653Z,36.26
2018-08-17T15:16:19.525Z,36.63
2018-08-17T15:18:50.526Z,37.20
2018-08-17T15:21:21.541Z,37.38
2018-08-17T15:23:52.533Z,37.73
2018-08-17T15:26:23.548Z,38.08
2018-08-17T15:28:54.535Z,38.07
2018-08-17T15:31:25.554Z,38.32
2018-08-17T15:33:56.541Z,37.61
2018-08-17T15:36:27.504Z,37.38
2018-08-17T15:38:58.528Z,38.10
2018-08-17T15:41:29.576Z,37.64
2018-08-17T15:44:00.477Z,36.93
2018-08-17T15:46:35.192Z,37.05
2018-08-17T15:49:06.430Z,37.30
2018-08-17T15:51:37.585Z,37.35
2018-08-17T15:54:08.523Z,36.69
2018-08-17T15:56:39.521Z,36.66
2018-08-17T15:59:10.468Z,37.75
2018-08-17T16:01:41.482Z,39.12
2018-08-17T16:04:12.472Z,38.36
2018-08-17T16:06:43.670Z,39.73
2018-08-17T16:09:14.961Z,39.35
2018-08-17T16:11:46.012Z,40.29
2018-08-17T16:14:17.196Z,40.64
2018-08-17T16:16:48.454Z,40.42
2018-08-17T16:19:19.458Z,40.70
2018-08-17T16:21:50.433Z,41.10
2018-08-17T16:24:21.460Z,42.41
2018-08-17T16:26:52.502Z,41.99
2018-08-17T16:29:23.537Z,42.06
2018-08-17T16:31:54.568Z,42.98
2018-08-17T16:34:25.433Z,42.92
2018-08-17T16:36:56.491Z,43.01
2018-08-17T16:39:27.466Z,44.54
2018-08-17T16:41:58.637Z,44.16
2018-08-17T16:44:29.529Z,44.27
2018-08-17T16:47:00.502Z,44.81
2018-08-17T16:49:31.487Z,44.98
2018-08-17T16:52:02.593Z,45.08
2018-08-17T16:54:33.564Z,44.55
2018-08-17T16:57:04.462Z,44.52
2018-08-17T16:59:35.574Z,45.40
2018-08-17T17:02:06.545Z,45.83
2018-08-17T17:04:42.958Z,44.55
2018-08-17T17:07:13.621Z,45.46
2018-08-17T17:09:44.737Z,44.86
2018-08-17T17:12:20.397Z,44.73
2018-08-17T17:14:51.778Z,46.15
2018-08-17T17:17:22.577Z,45.69
2018-08-17T17:19:53.480Z,45.57
2018-08-17T17:22:26.294Z,46.29
2018-08-17T17:25:10.292Z,45.32
2018-08-17T17:27:41.630Z,46.49
2018-08-17T17:30:12.554Z,47.55
2018-08-17T17:32:43.528Z,46.38
2018-08-17T17:35:14.559Z,47.20
2018-08-17T17:37:45.514Z,47.43
2018-08-17T17:40:16.485Z,47.22
2018-08-17T17:42:47.497Z,47.57
2018-08-17T17:45:18.523Z,47.27
2018-08-17T17:47:49.574Z,47.58
2018-08-17T17:50:20.490Z,47.76
2018-08-17T17:52:51.491Z,48.36
2018-08-17T17:55:22.581Z,48.12
2018-08-17T17:57:54.639Z,48.80
2018-08-17T18:00:25.505Z,48.61
2018-08-17T18:02:56.563Z,48.32
2018-08-17T18:05:27.514Z,48.40
2018-08-17T18:08:07.321Z,48.51
2018-08-17T18:10:38.357Z,48.51
2018-08-17T18:13:09.468Z,49.62
2018-08-17T18:15:40.382Z,49.37
2018-08-17T18:18:11.630Z,50.32
2018-08-17T18:20:42.489Z,50.53
2018-08-17T18:23:13.509Z,49.75
2018-08-17T18:25:44.496Z,50.49
2018-08-17T18:28:15.534Z,50.33
2018-08-17T18:30:46.581Z,50.59
2018-08-17T18:33:17.514Z,51.27
2018-08-17T18:35:48.469Z,50.39
2018-08-17T18:38:19.494Z,50.98
2018-08-17T18:40:50.497Z,50.80
2018-08-17T18:43:21.492Z,52.12
2018-08-17T18:45:52.491Z,51.17
2018-08-17T18:48:23.517Z,51.81
2018-08-17T18:50:54.493Z,51.24
2018-08-17T18:53:25.491Z,51.24
2018-08-17T18:55:56.502Z,52.55
2018-08-17T18:58:27.511Z,51.69
2018-08-17T19:00:59.286Z,52.79
2018-08-17T19:03:30.358Z,53.08
2018-08-17T19:06:01.347Z,52.62
2018-08-17T19:08:32.358Z,53.69
2018-08-17T19:11:03.370Z,53.08
2018-08-17T19:13:34.593Z,52.98
2018-08-17T19:16:05.546Z,54.01
2018-08-17T19:18:36.490Z,53.98
2018-08-17T19:21:13.222Z,53.81
2018-08-17T19:23:44.394Z,54.93
2018-08-17T19:26:15.461Z,54.47
2018-08-17T19:28:51.607Z,54.27
2018-08-17T19:31:22.525Z,54.63
2018-08-17T19:33:53.750Z,54.75
2018-08-17T19:36:24.541Z,55.26
2018-08-17T19:38:55.476Z,55.90
2018-08-17T19:41:26.489Z,55.58
2018-08-17T19:43:57.487Z,55.14
2018-08-17T19:46:28.454Z,55.77
2018-08-17T19:48:59.493Z,56.04
2018-08-17T19:51:30.481Z,55.99
2018-08-17T19:54:01.493Z,56.43
2018-08-17T19:56:32.453Z,56.09
2018-08-17T19:59:03.502Z,56.16
2018-08-17T20:01:34.496Z,56.08
2018-08-17T20:04:05.501Z,56.50
2018-08-17T20:06:36.493Z,56.93
2018-08-17T20:09:10.645Z,56.79
2018-08-17T20:11:41.564Z,56.75
2018-08-17T20:14:12.514Z,56.84
2018-08-17T20:16:46.565Z,57.56
2018-08-17T20:19:17.601Z,56.53
2018-08-17T20:21:48.522Z,57.03
2018-08-17T20:24:19.457Z,57.45
2018-08-17T20:26:53.378Z,57.43
2018-08-17T20:29:24.349Z,56.95
2018-08-17T20:31:55.369Z,57.24
2018-08-17T20:34:26.461Z,57.53
2018-08-17T20:36:57.502Z,57.07
2018-08-17T20:39:28.478Z,57.52
2018-08-17T20:41:59.479Z,57.05
2018-08-17T20:44:30.477Z,57.42
2018-08-17T20:47:01.475Z,58.03
2018-08-17T20:49:32.484Z,57.21
2018-08-17T20:52:04.421Z,57.10
2018-08-17T20:54:35.488Z,57.10
2018-08-17T20:57:06.490Z,58.30
2018-08-17T20:59:37.468Z,58.13
2018-08-17T21:02:08.461Z,58.32
2018-08-17T21:04:39.502Z,57.90
2018-08-17T21:07:10.518Z,58.08
2018-08-17T21:09:41.488Z,58.21
2018-08-17T21:12:12.485Z,59.25
2018-08-17T21:14:43.502Z,58.50
2018-08-17T21:19:54.526Z,59.00
2018-08-17T21:22:25.490Z,59.43
2018-08-17T21:24:56.549Z,58.69
2018-08-17T21:27:27.499Z,59.64
2018-08-17T21:29:58.510Z,59.35
2018-08-17T21:32:29.491Z,59.48
2018-08-17T21:35:00.573Z,59.82
2018-08-17T21:37:31.548Z,59.93
2018-08-17T21:40:02.505Z,59.17
2018-08-17T21:42:33.509Z,59.18
2018-08-17T21:45:04.525Z,59.55
2018-08-17T21:47:35.459Z,58.97
2018-08-17T21:50:12.227Z,59.89
2018-08-17T21:52:44.294Z,59.87
2018-08-17T21:55:15.458Z,59.45
2018-08-17T21:57:46.474Z,59.26
2018-08-17T22:00:29.225Z,59.05
2018-08-17T22:03:00.415Z,60.32
2018-08-17T22:05:32.839Z,60.25
2018-08-17T22:08:03.653Z,59.64
2018-08-17T22:10:34.558Z,59.74
2018-08-17T22:13:05.485Z,60.00
2018-08-17T22:15:36.483Z,60.75
2018-08-17T22:18:07.465Z,60.47
2018-08-17T22:20:38.488Z,59.75
2018-08-17T22:23:09.834Z,60.10
2018-08-17T22:25:40.637Z,60.93
2018-08-17T22:28:11.472Z,60.41
2018-08-17T22:30:42.487Z,61.17
2018-08-17T22:33:14.385Z,61.56
2018-08-17T22:35:45.484Z,61.63
2018-08-17T22:38:16.480Z,61.61
2018-08-17T22:40:47.465Z,61.63
2018-08-17T22:43:18.448Z,61.15
2018-08-17T22:45:50.289Z,61.36
2018-08-17T22:48:21.475Z,61.16
2018-08-17T22:50:52.455Z,61.62
2018-08-17T22:53:23.494Z,62.27
2018-08-17T22:55:54.509Z,61.97
2018-08-17T22:58:25.465Z,62.54
2018-08-17T23:00:56.506Z,62.21
2018-08-17T23:03:27.473Z,61.83
2018-08-17T23:05:58.498Z,62.23
2018-08-17T23:08:29.611Z,61.60
2018-08-17T23:11:00.490Z,62.48
2018-08-17T23:13:31.478Z,62.40
2018-08-17T23:16:02.461Z,61.51
2018-08-17T23:18:33.583Z,61.68
2018-08-17T23:21:04.560Z,62.11
2018-08-17T23:23:35.530Z,62.75
2018-08-17T23:26:06.454Z,62.57
2018-08-17T23:28:37.425Z,62.52
2018-08-17T23:31:08.485Z,62.96
2018-08-17T23:33:39.493Z,62.35
2018-08-17T23:36:10.489Z,62.90
2018-08-17T23:38:41.537Z,62.57
2018-08-17T23:41:12.552Z,61.97
2018-08-17T23:43:43.577Z,62.34
2018-08-17T23:46:14.501Z,61.95
2018-08-17T23:48:45.502Z,61.82
2018-08-17T23:51:16.518Z,62.10
2018-08-17T23:53:47.510Z,62.88
2018-08-17T23:56:18.518Z,61.81
2018-08-17T23:58:49.497Z,61.97
